Terminal Aerodrome Forecast
Issued by NWS

Home | Current Version | Previous Version | Text Only | Print | Product List | Glossary On
Versions: 1 2 3 4 5 6 7 8 9 10 11 12 13 14 15 16 17
368
FTUS41 KAKQ 222334
TAFPHF
TAF
KPHF 222334Z 2300/2324 22007KT P6SM SCT250
     FM231000 24009KT P6SM VCSH OVC100
     FM231200 25009KT P6SM OVC080
     FM231600 24013G20KT P6SM BKN045=

USA.gov is the U.S. government's official web portal to all federal, state and local government web resources and services.